Time;durP1;ratioP1;P1;durP2;ratioP2;P2;SDS_P1;SDS_P2;PMS_P1;PMS_P2;Temp;Humidity;BMP_temperature;BMP_pressure;BME280_temperature;BME280_humidity;BME280_pressure;Samples;Min_cycle;Max_cycle;Signal;HPM_P1;HPM_P2
2022/10/11 00:00:41;;;;;;;26.17;7.97;;;;;;;12.99;100.00;98253.94;5032479;28;20044;-56
2022/10/11 00:03:06;;;;;;;39.10;9.60;;;;;;;12.89;100.00;98253.53;5034870;28;20025;-59
2022/10/11 00:05:32;;;;;;;42.72;13.23;;;;;;;12.31;100.00;98251.75;5035214;28;20666;-58
2022/10/11 00:07:57;;;;;;;44.92;13.32;;;;;;;12.12;100.00;98236.88;5036011;28;20036;-56
2022/10/11 00:10:23;;;;;;;55.90;14.23;;;;;;;11.91;100.00;98228.22;5035872;28;20044;-57
2022/10/11 00:12:51;;;;;;;37.13;10.73;;;;;;;12.72;100.00;98226.38;5036967;28;20039;-56
2022/10/11 00:15:19;;;;;;;44.42;13.13;;;;;;;12.64;100.00;98223.25;5035593;28;20033;-56
2022/10/11 00:17:45;;;;;;;39.88;11.88;;;;;;;12.47;100.00;98223.16;5035047;28;20041;-55
2022/10/11 00:20:11;;;;;;;46.90;12.90;;;;;;;12.46;100.00;98227.56;5034391;28;20036;-59
2022/10/11 00:22:38;;;;;;;46.95;10.80;;;;;;;12.44;100.00;98225.91;5037755;28;20029;-55
2022/10/11 00:25:05;;;;;;;33.85;8.75;;;;;;;13.52;100.00;98226.97;5036195;28;20052;-56
2022/10/11 00:27:30;;;;;;;42.58;9.35;;;;;;;13.17;100.00;98258.31;5032905;28;20042;-59
2022/10/11 00:29:56;;;;;;;40.70;11.45;;;;;;;12.93;100.00;98255.91;5036055;28;20401;-58
2022/10/11 00:32:21;;;;;;;38.15;11.35;;;;;;;12.12;100.00;98252.56;5034861;28;20407;-56
2022/10/11 00:34:47;;;;;;;40.75;11.32;;;;;;;12.57;100.00;98252.38;5036115;28;20036;-58
2022/10/11 00:37:12;;;;;;;38.28;11.52;;;;;;;12.56;100.00;98258.53;5033192;28;20797;-60
2022/10/11 00:39:37;;;;;;;62.35;11.90;;;;;;;12.41;100.00;98252.22;5032839;28;20036;-59
2022/10/11 00:42:03;;;;;;;36.05;11.95;;;;;;;12.61;100.00;98251.31;5033108;28;20127;-58
2022/10/11 00:44:31;;;;;;;42.47;12.68;;;;;;;12.25;100.00;98252.03;5036050;28;20025;-58
2022/10/11 00:47:00;;;;;;;37.75;11.00;;;;;;;12.56;100.00;98253.31;5035206;28;20071;-58
2022/10/11 00:49:44;;;;;;;43.42;9.07;;;;;;;13.30;100.00;98248.97;5037557;28;20110;-58
2022/10/11 00:52:19;;;;;;;41.28;11.88;;;;;;;12.54;100.00;98262.06;5033166;28;20090;-58
2022/10/11 00:54:47;;;;;;;46.05;11.38;;;;;;;12.74;100.00;98260.31;5033250;28;20041;-58
2022/10/11 00:57:19;;;;;;;38.78;11.65;;;;;;;12.42;100.00;98265.22;5031774;28;20046;-57
2022/10/11 00:59:49;;;;;;;42.70;12.95;;;;;;;12.37;100.00;98254.13;5034631;28;20039;-56
2022/10/11 01:02:16;;;;;;;43.55;13.40;;;;;;;12.52;100.00;98248.19;5034208;28;20087;-57
2022/10/11 01:04:41;;;;;;;40.00;12.13;;;;;;;12.47;100.00;98244.94;5035215;28;20032;-58
2022/10/11 01:07:09;;;;;;;42.15;11.80;;;;;;;12.71;100.00;98239.50;5033738;28;20033;-56
2022/10/11 01:09:34;;;;;;;66.32;14.55;;;;;;;12.27;100.00;98234.53;5034985;28;20025;-56
2022/10/11 01:12:02;;;;;;;53.65;13.40;;;;;;;12.24;100.00;98240.75;5033895;28;20041;-56
2022/10/11 01:14:30;;;;;;;40.80;12.00;;;;;;;12.38;100.00;98236.66;5034017;28;20028;-57
2022/10/11 01:17:22;;;;;;;42.60;11.95;;;;;;;12.29;100.00;98240.53;5032296;28;20052;-56
2022/10/11 01:20:02;;;;;;;40.90;12.25;;;;;;;12.26;100.00;98243.25;5033621;28;20103;-59
2022/10/11 01:22:55;;;;;;;38.63;9.75;;;;;;;12.87;100.00;98240.50;5033799;28;20037;-56
2022/10/11 01:25:33;;;;;;;34.75;8.30;;;;;;;13.59;100.00;98240.63;5034220;28;20056;-57
2022/10/11 01:28:14;;;;;;;34.80;7.63;;;;;;;14.16;100.00;98259.59;5035083;28;20013;-56
2022/10/11 01:30:41;;;;;;;39.28;10.93;;;;;;;12.61;100.00;98280.09;5033758;28;20152;-59
2022/10/11 01:33:22;;;;;;;40.58;11.65;;;;;;;12.69;100.00;98273.59;5034767;28;20491;-58
2022/10/11 01:36:18;;;;;;;40.43;11.30;;;;;;;12.43;100.00;98264.31;5032212;28;20609;-57
2022/10/11 01:39:17;;;;;;;44.38;13.07;;;;;;;12.58;100.00;98262.78;5032228;28;20037;-56
2022/10/11 01:41:47;;;;;;;33.85;10.70;;;;;;;12.75;100.00;98261.16;5032139;28;20036;-57
2022/10/11 01:44:13;;;;;;;34.17;11.50;;;;;;;12.25;100.00;98257.28;5034788;28;20083;-56
2022/10/11 01:46:39;;;;;;;40.03;11.25;;;;;;;12.48;100.00;98254.50;5035292;28;20029;-57
2022/10/11 01:49:05;;;;;;;34.50;9.57;;;;;;;12.48;100.00;98254.50;5035815;28;20391;-56
2022/10/11 01:51:36;;;;;;;37.03;8.10;;;;;;;13.32;100.00;98256.75;5029830;28;20076;-58
2022/10/11 01:54:38;;;;;;;30.52;8.02;;;;;;;13.48;100.00;98272.59;5034717;28;20487;-59
2022/10/11 01:57:22;;;;;;;31.17;7.63;;;;;;;13.15;100.00;98275.88;5021709;28;20089;-57
2022/10/11 02:00:00;;;;;;;41.97;11.25;;;;;;;12.42;100.00;98270.44;5031462;28;20032;-57
2022/10/11 02:02:31;;;;;;;39.70;10.90;;;;;;;11.87;100.00;98262.34;5031802;28;20124;-58
2022/10/11 02:05:22;;;;;;;31.58;8.30;;;;;;;12.68;100.00;98264.06;5033425;28;20060;-56
2022/10/11 02:08:14;;;;;;;42.08;10.30;;;;;;;12.61;100.00;98278.34;5031169;28;20084;-57
2022/10/11 02:11:10;;;;;;;47.25;9.95;;;;;;;12.60;100.00;98279.25;5033272;28;20036;-58
2022/10/11 02:13:43;;;;;;;41.40;10.65;;;;;;;12.24;100.00;98284.34;5032066;28;20706;-57
2022/10/11 02:16:13;;;;;;;38.70;9.43;;;;;;;12.19;100.00;98275.84;5033474;28;20033;-57
2022/10/11 02:18:44;;;;;;;38.40;8.00;;;;;;;13.65;100.00;98267.38;5032981;28;20159;-57
2022/10/11 02:21:14;;;;;;;36.80;9.20;;;;;;;12.71;100.00;98289.25;5029843;28;20041;-58
2022/10/11 02:23:49;;;;;;;40.72;11.57;;;;;;;12.72;100.00;98301.44;5031947;28;20057;-59
2022/10/11 02:26:16;;;;;;;40.00;11.15;;;;;;;12.27;100.00;98294.66;5030896;28;20783;-56
2022/10/11 02:28:43;;;;;;;43.58;12.18;;;;;;;12.12;100.00;98289.19;5030055;28;20033;-57
2022/10/11 02:31:11;;;;;;;43.50;10.30;;;;;;;12.74;100.00;98294.34;5033404;28;20037;-59
2022/10/11 02:33:43;;;;;;;31.30;7.88;;;;;;;13.72;100.00;98281.03;5035213;28;20032;-57
2022/10/11 02:36:14;;;;;;;38.03;11.18;;;;;;;12.54;100.00;98300.47;5032544;28;20036;-56
2022/10/11 02:38:48;;;;;;;32.13;7.97;;;;;;;12.95;100.00;98299.53;5035539;28;20445;-59
2022/10/11 02:41:24;;;;;;;34.55;8.73;;;;;;;12.99;100.00;98298.47;5031073;28;20049;-57
2022/10/11 02:44:05;;;;;;;25.38;6.78;;;;;;;13.22;100.00;98285.16;5034804;28;20025;-56
2022/10/11 02:46:32;;;;;;;36.97;10.13;;;;;;;12.29;100.00;98300.69;5033405;28;20057;-59
2022/10/11 02:48:59;;;;;;;38.67;10.88;;;;;;;12.42;100.00;98294.00;5032743;28;20040;-57
2022/10/11 02:51:28;;;;;;;34.50;9.80;;;;;;;12.17;100.00;98306.44;5030425;28;20029;-58
2022/10/11 02:53:53;;;;;;;35.05;9.68;;;;;;;12.37;100.00;98295.97;5033403;28;20029;-56
2022/10/11 02:56:19;;;;;;;42.13;11.32;;;;;;;12.59;100.00;98302.88;5033518;28;20067;-58
2022/10/11 02:58:44;;;;;;;40.38;11.30;;;;;;;12.25;100.00;98299.13;5033263;28;20033;-56
2022/10/11 03:01:10;;;;;;;51.17;11.65;;;;;;;12.44;100.00;98300.03;5031553;28;20087;-58
2022/10/11 03:03:35;;;;;;;32.30;7.75;;;;;;;12.83;100.00;98301.78;5032077;28;20040;-57
2022/10/11 03:06:02;;;;;;;29.80;7.95;;;;;;;13.36;100.00;98312.47;5033681;28;20094;-57
2022/10/11 03:08:27;;;;;;;34.67;8.35;;;;;;;13.03;100.00;98315.72;5033378;28;20035;-58
2022/10/11 03:10:53;;;;;;;33.78;9.10;;;;;;;12.75;100.00;98313.50;5031040;28;20033;-56
2022/10/11 03:13:18;;;;;;;39.97;10.30;;;;;;;12.70;100.00;98309.34;5031021;28;20025;-58
2022/10/11 03:15:48;;;;;;;39.42;9.98;;;;;;;12.63;100.00;98305.28;5031826;28;20140;-58
2022/10/11 03:18:13;;;;;;;36.72;8.88;;;;;;;12.53;100.00;98302.25;5032076;28;20074;-56
2022/10/11 03:20:39;;;;;;;33.95;9.32;;;;;;;12.56;100.00;98303.03;5029794;28;20037;-58
2022/10/11 03:23:04;;;;;;;36.65;9.55;;;;;;;12.34;100.00;98304.78;5032159;28;20463;-57
2022/10/11 03:25:29;;;;;;;45.92;9.45;;;;;;;13.01;100.00;98323.66;5031158;28;20143;-57
2022/10/11 03:27:55;;;;;;;41.88;8.80;;;;;;;12.48;100.00;98317.28;5032661;28;20392;-57
2022/10/11 03:30:20;;;;;;;37.45;8.98;;;;;;;12.70;100.00;98325.03;5032397;28;20550;-57
2022/10/11 03:32:46;;;;;;;42.05;9.65;;;;;;;12.50;100.00;98322.47;5029811;28;20029;-56
2022/10/11 03:35:11;;;;;;;30.77;8.80;;;;;;;12.56;100.00;98319.56;5030694;28;20122;-57
2022/10/11 03:37:36;;;;;;;46.58;11.40;;;;;;;12.58;100.00;98316.88;5035563;28;20155;-55
2022/10/11 03:40:03;;;;;;;36.33;10.82;;;;;;;12.70;100.00;98324.19;5037049;28;20025;-56
2022/10/11 03:42:28;;;;;;;41.80;11.18;;;;;;;12.11;100.00;98326.72;5034826;28;20049;-56
2022/10/11 03:44:54;;;;;;;38.40;9.85;;;;;;;12.26;100.00;98319.97;5034559;28;20025;-55
2022/10/11 03:47:19;;;;;;;31.55;9.35;;;;;;;12.75;100.00;98322.22;5035231;28;20032;-56
2022/10/11 03:49:44;;;;;;;42.78;10.90;;;;;;;12.38;100.00;98326.44;5033367;28;20059;-58
2022/10/11 03:52:10;;;;;;;37.85;10.18;;;;;;;12.78;100.00;98340.41;5035798;28;20105;-57
2022/10/11 03:54:35;;;;;;;39.90;10.88;;;;;;;12.34;100.00;98324.88;5037913;28;20022;-57
2022/10/11 03:57:01;;;;;;;33.97;8.35;;;;;;;12.47;100.00;98323.44;5035683;28;20049;-56
2022/10/11 03:59:26;;;;;;;43.10;9.57;;;;;;;12.59;100.00;98326.41;5036035;28;20098;-58
2022/10/11 04:01:51;;;;;;;37.88;7.53;;;;;;;13.43;100.00;98329.63;5033925;28;20747;-59
2022/10/11 04:04:17;;;;;;;39.33;10.05;;;;;;;12.77;100.00;98349.16;5031823;28;20729;-57
2022/10/11 04:06:42;;;;;;;42.55;9.88;;;;;;;12.76;100.00;98344.84;5030328;28;20039;-58
2022/10/11 04:09:07;;;;;;;34.38;7.18;;;;;;;14.50;100.00;98343.59;5033523;28;20021;-56
2022/10/11 04:11:32;;;;;;;39.38;9.35;;;;;;;13.03;100.00;98365.47;5034613;28;20136;-56
2022/10/11 04:13:58;;;;;;;57.78;11.57;;;;;;;12.67;100.00;98364.44;5033412;28;20027;-55
2022/10/11 04:16:23;;;;;;;36.65;10.23;;;;;;;12.51;100.00;98364.22;5033706;28;20057;-57
2022/10/11 04:18:49;;;;;;;37.83;10.40;;;;;;;12.44;100.00;98360.22;5035967;28;20029;-59
2022/10/11 04:21:14;;;;;;;47.20;11.55;;;;;;;12.44;100.00;98361.94;5034194;28;20033;-56
2022/10/11 04:23:39;;;;;;;39.05;10.23;;;;;;;12.44;100.00;98360.22;5035848;28;20167;-56
2022/10/11 04:26:06;;;;;;;42.25;11.13;;;;;;;12.37;100.00;98361.38;5035472;28;20669;-58
2022/10/11 04:28:32;;;;;;;37.97;11.15;;;;;;;12.38;100.00;98360.44;5035655;28;20040;-55
2022/10/11 04:30:57;;;;;;;40.25;10.43;;;;;;;12.42;100.00;98359.41;5033092;28;20037;-55
2022/10/11 04:33:23;;;;;;;48.92;10.82;;;;;;;12.55;100.00;98354.47;5036580;28;20021;-55
2022/10/11 04:35:52;;;;;;;37.85;9.98;;;;;;;12.65;100.00;98360.19;5033406;28;20048;-56
2022/10/11 04:38:18;;;;;;;36.05;8.68;;;;;;;13.00;100.00;98365.63;5033467;28;20025;-59
2022/10/11 04:40:43;;;;;;;33.42;9.85;;;;;;;12.92;100.00;98369.44;5032941;28;20025;-55
2022/10/11 04:43:08;;;;;;;40.55;10.88;;;;;;;12.44;100.00;98367.19;5034682;28;20040;-56
2022/10/11 04:45:34;;;;;;;34.20;9.77;;;;;;;12.63;100.00;98362.03;5035897;28;20969;-57
2022/10/11 04:47:59;;;;;;;40.03;10.45;;;;;;;12.51;100.00;98366.84;5035447;28;20454;-56
2022/10/11 04:50:25;;;;;;;40.10;10.43;;;;;;;12.73;100.00;98363.31;5031927;28;20493;-55
2022/10/11 04:52:50;;;;;;;33.92;10.75;;;;;;;12.92;100.00;98365.94;5036448;28;20079;-56
2022/10/11 04:55:15;;;;;;;44.53;11.13;;;;;;;12.83;100.00;98367.22;5035303;28;20037;-57
2022/10/11 04:57:41;;;;;;;40.20;11.55;;;;;;;12.35;100.00;98360.56;5035372;28;20567;-56
2022/10/11 05:00:07;;;;;;;41.13;12.27;;;;;;;12.63;100.00;98354.19;5034445;28;20021;-56
2022/10/11 05:02:33;;;;;;;55.25;15.55;;;;;;;12.30;100.00;98355.53;5032920;28;20071;-56
2022/10/11 05:04:58;;;;;;;44.03;14.20;;;;;;;12.53;100.00;98359.81;5033812;28;20107;-58
2022/10/11 05:07:23;;;;;;;44.80;13.93;;;;;;;12.60;100.00;98367.38;5034869;28;20042;-55
2022/10/11 05:09:49;;;;;;;56.15;15.00;;;;;;;12.13;100.00;98364.09;5033151;28;20028;-56
2022/10/11 05:12:14;;;;;;;40.97;11.60;;;;;;;12.68;100.00;98357.41;5033239;28;20495;-58
2022/10/11 05:14:39;;;;;;;38.45;8.10;;;;;;;13.47;100.00;98370.47;5034484;28;20040;-59
2022/10/11 05:17:05;;;;;;;35.22;8.48;;;;;;;13.34;100.00;98374.59;5034004;28;20045;-56
2022/10/11 05:19:30;;;;;;;51.10;12.38;;;;;;;13.01;100.00;98378.66;5032400;28;20167;-57
2022/10/11 05:21:56;;;;;;;47.03;12.40;;;;;;;12.91;100.00;98372.97;5033292;28;20150;-55
2022/10/11 05:24:22;;;;;;;48.80;12.32;;;;;;;12.77;100.00;98370.09;5035885;28;20075;-55
2022/10/11 05:26:47;;;;;;;47.78;13.73;;;;;;;12.66;100.00;98361.88;5034114;28;20073;-55
2022/10/11 05:29:13;;;;;;;42.70;13.20;;;;;;;12.69;100.00;98356.50;5032226;28;20454;-55
2022/10/11 05:31:38;;;;;;;41.85;13.18;;;;;;;12.46;100.00;98365.34;5030050;28;20962;-56
2022/10/11 05:34:03;;;;;;;56.03;14.90;;;;;;;12.75;100.00;98358.84;5033002;28;20977;-56
2022/10/11 05:36:29;;;;;;;32.85;8.02;;;;;;;13.52;100.00;98362.41;5031483;28;20641;-56
2022/10/11 05:38:54;;;;;;;40.08;10.00;;;;;;;13.45;100.00;98383.66;5034409;28;20460;-57
2022/10/11 05:41:19;;;;;;;43.25;11.85;;;;;;;13.23;100.00;98386.41;5030329;28;20049;-55
2022/10/11 05:43:45;;;;;;;33.28;8.05;;;;;;;13.65;100.00;98379.25;5030050;28;20033;-56
2022/10/11 05:46:11;;;;;;;29.35;7.90;;;;;;;13.81;100.00;98379.38;5034878;28;20774;-56
2022/10/11 05:48:37;;;;;;;35.92;8.95;;;;;;;13.87;100.00;98394.78;5032934;28;20684;-57
2022/10/11 05:51:05;;;;;;;49.72;12.05;;;;;;;13.31;100.00;98401.78;5033243;28;20037;-56
2022/10/11 05:53:30;;;;;;;42.53;9.23;;;;;;;13.72;100.00;98398.16;5031649;28;20025;-58
2022/10/11 05:55:56;;;;;;;33.80;8.18;;;;;;;13.89;100.00;98403.44;5031660;28;20025;-57
2022/10/11 05:58:22;;;;;;;38.17;9.27;;;;;;;13.98;100.00;98412.63;5031504;28;20036;-56
2022/10/11 06:00:47;;;;;;;39.30;11.55;;;;;;;13.26;100.00;98422.91;5031647;28;20178;-56
2022/10/11 06:03:13;;;;;;;52.53;16.25;;;;;;;13.59;100.00;98417.06;5031381;28;20040;-56
2022/10/11 06:05:39;;;;;;;49.45;13.52;;;;;;;13.87;100.00;98428.88;5031998;28;20566;-58
2022/10/11 06:08:05;;;;;;;52.67;15.23;;;;;;;13.90;100.00;98427.91;5033068;28;20028;-57
2022/10/11 06:10:31;;;;;;;43.72;12.90;;;;;;;14.04;100.00;98439.44;5032196;28;20120;-56
2022/10/11 06:12:57;;;;;;;48.28;14.25;;;;;;;13.57;100.00;98447.75;5033039;28;20125;-59
2022/10/11 06:15:22;;;;;;;49.28;12.43;;;;;;;13.52;100.00;98441.88;5032944;28;20040;-56
2022/10/11 06:17:47;;;;;;;44.53;13.10;;;;;;;13.20;100.00;98440.69;5030343;28;20034;-58
2022/10/11 06:20:13;;;;;;;45.08;13.55;;;;;;;13.65;100.00;98443.00;5032590;28;20569;-56
2022/10/11 06:22:39;;;;;;;43.50;12.63;;;;;;;13.49;100.00;98442.00;5030507;28;20136;-59
2022/10/11 06:25:05;;;;;;;45.03;12.25;;;;;;;13.90;100.00;98441.88;5033334;28;20024;-57
2022/10/11 06:27:30;;;;;;;55.15;14.05;;;;;;;13.52;100.00;98462.00;5034243;28;20638;-57
2022/10/11 06:29:56;;;;;;;38.65;11.50;;;;;;;13.96;100.00;98454.66;5034352;28;20024;-56
2022/10/11 06:32:21;;;;;;;41.20;12.65;;;;;;;13.53;100.00;98464.53;5033050;28;20476;-57
2022/10/11 06:34:46;;;;;;;35.42;8.75;;;;;;;14.51;100.00;98458.19;5033152;28;20605;-56
2022/10/11 06:37:12;;;;;;;45.28;11.88;;;;;;;14.07;100.00;98478.59;5032144;28;20243;-56
2022/10/11 06:39:37;;;;;;;65.97;14.55;;;;;;;13.80;100.00;98482.53;5030718;28;20356;-58
2022/10/11 06:42:03;;;;;;;39.80;9.90;;;;;;;14.07;100.00;98476.00;5033137;28;20554;-60
2022/10/11 06:44:28;;;;;;;41.90;12.45;;;;;;;14.10;100.00;98488.13;5030477;28;20498;-57
2022/10/11 06:46:53;;;;;;;40.75;12.60;;;;;;;14.21;100.00;98490.25;5030772;28;20037;-58
2022/10/11 06:49:19;;;;;;;44.28;12.18;;;;;;;14.54;100.00;98497.38;5032930;28;20032;-57
2022/10/11 06:51:44;;;;;;;47.17;13.52;;;;;;;14.19;100.00;98510.44;5030706;28;20045;-56
2022/10/11 06:54:09;;;;;;;39.65;12.30;;;;;;;13.95;100.00;98508.06;5032552;28;20031;-60
2022/10/11 06:56:35;;;;;;;41.88;13.52;;;;;;;13.83;100.00;98506.00;5032513;28;20142;-56
2022/10/11 06:59:00;;;;;;;37.45;12.35;;;;;;;14.11;100.00;98509.94;5031801;28;20462;-57
2022/10/11 07:01:26;;;;;;;43.97;11.57;;;;;;;14.21;100.00;98503.34;5030092;28;20093;-59
2022/10/11 07:03:53;;;;;;;53.63;13.35;;;;;;;14.45;100.00;98511.81;5030822;28;20112;-57
2022/10/11 07:06:21;;;;;;;39.97;12.60;;;;;;;14.03;100.00;98515.56;5031364;28;20206;-57
2022/10/11 07:08:47;;;;;;;37.60;13.13;;;;;;;13.75;100.00;98508.09;5033219;28;20017;-56
2022/10/11 07:11:15;;;;;;;51.28;13.20;;;;;;;14.55;100.00;98512.22;5032214;28;20486;-56
2022/10/11 07:13:41;;;;;;;44.78;13.73;;;;;;;14.42;100.00;98523.31;5033177;28;20120;-56
2022/10/11 07:16:09;;;;;;;42.42;12.60;;;;;;;14.94;100.00;98534.81;5030523;28;20041;-59
2022/10/11 07:18:34;;;;;;;37.70;10.77;;;;;;;15.16;100.00;98545.97;5032946;28;20033;-56
2022/10/11 07:21:05;;;;;;;45.40;12.38;;;;;;;14.94;100.00;98555.84;5031221;28;20037;-59
2022/10/11 07:23:31;;;;;;;38.88;10.95;;;;;;;14.93;100.00;98564.66;5033590;28;20515;-56
2022/10/11 07:25:56;;;;;;;35.35;10.68;;;;;;;14.62;100.00;98556.50;5029757;28;20078;-56
2022/10/11 07:28:22;;;;;;;32.53;9.38;;;;;;;14.72;100.00;98567.41;5033474;28;20033;-57
2022/10/11 07:30:49;;;;;;;30.73;9.45;;;;;;;14.64;100.00;98569.56;5032372;28;20049;-57
2022/10/11 07:33:14;;;;;;;38.20;9.25;;;;;;;14.95;100.00;98568.06;5032726;28;20039;-56
2022/10/11 07:35:39;;;;;;;39.35;10.18;;;;;;;14.83;100.00;98580.00;5034563;28;20033;-58
2022/10/11 07:38:05;;;;;;;37.55;9.63;;;;;;;14.79;100.00;98563.53;5030246;28;20021;-56
2022/10/11 07:40:33;;;;;;;36.17;9.90;;;;;;;14.75;100.00;98577.75;5030241;28;20029;-56
2022/10/11 07:42:59;;;;;;;28.73;8.68;;;;;;;14.71;100.00;98581.47;5033502;28;20016;-56
2022/10/11 07:45:27;;;;;;;44.53;10.52;;;;;;;14.86;100.00;98585.09;5032978;28;20577;-59
2022/10/11 07:47:54;;;;;;;36.80;9.48;;;;;;;14.51;100.00;98586.78;5033449;28;20037;-58
2022/10/11 07:50:20;;;;;;;37.25;9.82;;;;;;;14.62;100.00;98580.13;5032803;28;20029;-56
2022/10/11 07:52:45;;;;;;;33.58;8.85;;;;;;;14.66;100.00;98583.44;5031386;28;20017;-57
2022/10/11 07:55:10;;;;;;;37.58;9.63;;;;;;;14.65;100.00;98577.34;5032869;28;20025;-58
2022/10/11 07:57:36;;;;;;;41.42;9.75;;;;;;;15.03;100.00;98579.00;5030918;28;20128;-57
2022/10/11 08:00:01;;;;;;;32.05;8.73;;;;;;;15.50;100.00;98588.91;5032303;28;20036;-55
2022/10/11 08:02:27;;;;;;;33.17;9.23;;;;;;;15.48;100.00;98582.03;5030644;28;20083;-58
2022/10/11 08:04:52;;;;;;;37.83;9.80;;;;;;;15.37;100.00;98585.22;5031064;28;20044;-59
2022/10/11 08:07:17;;;;;;;28.70;8.48;;;;;;;15.19;100.00;98574.69;5031173;28;20144;-58
2022/10/11 08:09:43;;;;;;;40.03;11.50;;;;;;;15.50;100.00;98570.50;5031108;28;20434;-58
2022/10/11 08:12:08;;;;;;;35.50;9.15;;;;;;;16.02;100.00;98592.38;5029357;28;20139;-56
2022/10/11 08:14:34;;;;;;;33.10;9.40;;;;;;;15.53;100.00;98587.88;5032227;28;20052;-57
2022/10/11 08:16:59;;;;;;;31.45;9.05;;;;;;;16.27;100.00;98592.75;5030316;28;20075;-57
2022/10/11 08:19:24;;;;;;;38.80;9.73;;;;;;;15.43;100.00;98605.91;5032934;28;20033;-57
2022/10/11 08:21:50;;;;;;;39.42;10.15;;;;;;;15.47;100.00;98602.19;5029388;28;20784;-55
2022/10/11 08:24:19;;;;;;;28.90;9.50;;;;;;;15.83;100.00;98609.13;5035174;28;20033;-56
2022/10/11 08:26:45;;;;;;;42.65;10.10;;;;;;;16.47;100.00;98609.22;5034827;28;20103;-58
2022/10/11 08:29:11;;;;;;;35.70;9.25;;;;;;;16.52;100.00;98620.34;5034756;28;20581;-61
2022/10/11 08:31:36;;;;;;;33.88;8.93;;;;;;;16.94;100.00;98608.34;5032724;28;20052;-58
2022/10/11 08:34:01;;;;;;;36.38;9.35;;;;;;;16.97;100.00;98618.72;5035788;28;20524;-56
2022/10/11 08:36:27;;;;;;;32.33;8.07;;;;;;;17.37;100.00;98621.69;5034224;28;20805;-56
2022/10/11 08:38:52;;;;;;;32.20;9.05;;;;;;;18.23;100.00;98637.63;5036756;28;20479;-57
2022/10/11 08:41:23;;;;;;;31.40;8.52;;;;;;;17.87;100.00;98644.22;5033152;28;20590;-59
2022/10/11 08:44:10;;;;;;;29.00;8.05;;;;;;;20.04;100.00;98650.50;5037161;28;20017;-57
2022/10/11 08:46:40;;;;;;;29.25;7.70;;;;;;;20.22;100.00;98656.34;5034881;28;20731;-56
2022/10/11 08:49:06;;;;;;;32.28;7.50;;;;;;;19.73;100.00;98660.56;5036071;28;20040;-59
2022/10/11 08:51:58;;;;;;;34.95;8.80;;;;;;;19.50;100.00;98659.47;5031518;28;20505;-58
2022/10/11 08:54:48;;;;;;;30.52;7.85;;;;;;;18.95;100.00;98665.72;5034316;28;20036;-57
2022/10/11 08:57:19;;;;;;;35.00;8.57;;;;;;;18.68;100.00;98656.78;5034534;28;20453;-56
2022/10/11 08:59:55;;;;;;;36.45;9.38;;;;;;;18.80;100.00;98664.88;5032404;28;20384;-57
2022/10/11 09:02:35;;;;;;;30.02;8.65;;;;;;;18.20;100.00;98663.38;5034463;28;20787;-55
2022/10/11 09:05:02;;;;;;;30.30;8.38;;;;;;;18.24;100.00;98670.16;5032195;28;20029;-55
2022/10/11 09:07:59;;;;;;;31.25;8.43;;;;;;;18.08;100.00;98668.44;5031681;28;20037;-56
2022/10/11 09:10:43;;;;;;;30.08;8.23;;;;;;;17.51;100.00;98661.25;5033195;28;20128;-57
2022/10/11 09:13:56;;;;;;;29.17;7.88;;;;;;;18.83;100.00;98668.22;5033806;28;20032;-59
2022/10/11 09:16:27;;;;;;;35.47;8.65;;;;;;;18.11;100.00;98664.78;5022680;28;20049;-56
2022/10/11 09:19:20;;;;;;;28.80;8.00;;;;;;;17.89;100.00;98663.44;5034828;28;20485;-58
2022/10/11 09:21:49;;;;;;;25.27;7.97;;;;;;;17.96;100.00;98665.69;5032550;28;20045;-55
2022/10/11 09:24:33;;;;;;;31.10;8.05;;;;;;;17.73;100.00;98665.28;5033745;28;20021;-57
2022/10/11 09:27:17;;;;;;;29.75;8.02;;;;;;;18.67;100.00;98663.03;5032326;28;20139;-56
2022/10/11 09:30:04;;;;;;;34.70;8.40;;;;;;;18.75;100.00;98656.38;5032828;28;20040;-56
2022/10/11 09:32:35;;;;;;;34.00;8.77;;;;;;;18.30;100.00;98661.84;5033396;28;20045;-57
2022/10/11 09:35:09;;;;;;;27.20;7.93;;;;;;;18.09;100.00;98661.41;5033788;28;20032;-59
2022/10/11 09:37:54;;;;;;;30.92;7.68;;;;;;;18.96;100.00;98662.13;5032737;28;20051;-57
2022/10/11 09:40:44;;;;;;;27.52;7.10;;;;;;;19.23;100.00;98655.03;5035470;28;20060;-56
2022/10/11 09:43:11;;;;;;;28.70;7.68;;;;;;;18.56;100.00;98659.38;5034325;28;20032;-57
2022/10/11 09:45:37;;;;;;;28.67;7.40;;;;;;;19.11;100.00;98655.84;5033826;28;20461;-56
2022/10/11 09:48:05;;;;;;;25.10;6.47;;;;;;;19.45;100.00;98669.50;5035556;28;20036;-56
2022/10/11 09:50:32;;;;;;;30.40;7.63;;;;;;;19.61;100.00;98664.88;5032050;28;20032;-57
2022/10/11 09:53:01;;;;;;;28.23;7.53;;;;;;;18.78;100.00;98669.41;5033736;28;20051;-57
2022/10/11 09:55:38;;;;;;;23.58;7.00;;;;;;;20.85;100.00;98669.59;5032997;28;20029;-56
2022/10/11 09:58:22;;;;;;;26.33;6.88;;;;;;;19.98;100.00;98672.13;5034296;28;20490;-55
2022/10/11 10:01:07;;;;;;;27.58;7.38;;;;;;;19.62;100.00;98668.34;5032962;28;20033;-56
2022/10/11 10:03:35;;;;;;;24.05;6.90;;;;;;;19.94;100.00;98670.63;5035469;28;20136;-56
2022/10/11 10:06:05;;;;;;;26.98;7.45;;;;;;;19.50;100.00;98663.88;5031382;28;20060;-58
2022/10/11 10:08:30;;;;;;;21.92;6.68;;;;;;;20.48;100.00;98666.91;5031990;28;20028;-56
2022/10/11 10:11:02;;;;;;;27.98;7.43;;;;;;;19.75;100.00;98669.25;5031013;28;20029;-57
2022/10/11 10:13:43;;;;;;;24.67;7.03;;;;;;;19.97;100.00;98676.56;5033053;28;20112;-56
2022/10/11 10:16:38;;;;;;;32.65;7.28;;;;;;;19.31;100.00;98667.75;5031185;28;20632;-56
2022/10/11 10:19:17;;;;;;;33.00;7.07;;;;;;;19.67;100.00;98666.25;5023664;28;20049;-56
2022/10/11 10:21:45;;;;;;;24.88;7.10;;;;;;;18.52;100.00;98671.91;5031353;28;20622;-58
2022/10/11 10:24:26;;;;;;;26.48;7.38;;;;;;;18.95;100.00;98666.59;5032450;28;20779;-56
2022/10/11 10:27:04;;;;;;;22.60;6.65;;;;;;;18.59;100.00;98675.88;5029902;28;20105;-59
2022/10/11 10:29:29;;;;;;;30.92;7.47;;;;;;;18.44;100.00;98671.56;5030932;28;20033;-58
2022/10/11 10:31:56;;;;;;;29.40;7.00;;;;;;;18.97;100.00;98675.25;5032304;28;20558;-55
2022/10/11 10:34:32;;;;;;;35.47;7.53;;;;;;;18.71;100.00;98673.41;5031094;28;20101;-57
2022/10/11 10:37:05;;;;;;;29.45;7.43;;;;;;;18.24;100.00;98671.00;5033778;28;20086;-56
2022/10/11 10:39:51;;;;;;;37.28;8.27;;;;;;;18.69;100.00;98666.44;5031923;28;20035;-56
2022/10/11 10:42:18;;;;;;;33.17;7.88;;;;;;;18.79;100.00;98668.50;5031281;28;20040;-55
2022/10/11 10:44:50;;;;;;;33.90;7.72;;;;;;;19.30;100.00;98671.38;5032810;28;20036;-57
2022/10/11 10:47:37;;;;;;;30.10;7.88;;;;;;;19.09;100.00;98676.25;5030877;28;20100;-59
2022/10/11 10:50:36;;;;;;;30.88;6.90;;;;;;;19.18;100.00;98664.22;5032646;28;20028;-57
2022/10/11 10:53:15;;;;;;;30.90;7.13;;;;;;;19.20;100.00;98664.97;5020668;28;20079;-56
2022/10/11 10:55:53;;;;;;;27.10;6.45;;;;;;;18.76;100.00;98666.03;5033332;28;20044;-55
2022/10/11 10:58:52;;;;;;;25.10;7.20;;;;;;;17.61;100.00;98660.72;5029820;28;20060;-59
2022/10/11 11:01:26;;;;;;;26.38;6.95;;;;;;;18.52;100.00;98658.72;5029879;28;20135;-57
2022/10/11 11:04:05;;;;;;;30.77;7.10;;;;;;;18.32;100.00;98665.25;5033077;28;20032;-54
2022/10/11 11:06:36;;;;;;;35.47;8.10;;;;;;;17.97;100.00;98667.41;5030589;28;20033;-55
2022/10/11 11:09:10;;;;;;;26.33;6.90;;;;;;;18.75;100.00;98659.03;5031465;28;20028;-56
2022/10/11 11:12:01;;;;;;;46.42;8.82;;;;;;;19.55;100.00;98670.56;5029638;28;20037;-56
2022/10/11 11:14:51;;;;;;;28.50;7.60;;;;;;;19.09;100.00;98670.13;5033976;28;20701;-60
2022/10/11 11:17:22;;;;;;;29.02;6.93;;;;;;;20.31;100.00;98662.75;5029789;28;20502;-59
2022/10/11 11:20:12;;;;;;;36.63;7.93;;;;;;;20.47;100.00;98666.03;5031480;28;20387;-57
2022/10/11 11:23:12;;;;;;;33.47;7.10;;;;;;;20.78;100.00;98658.56;5033728;28;20192;-58
2022/10/11 11:26:07;;;;;;;30.30;7.22;;;;;;;19.81;100.00;98650.31;5032908;28;20128;-57
2022/10/11 11:28:54;;;;;;;28.13;7.55;;;;;;;19.90;100.00;98647.97;5015387;28;20119;-56